sensor_id;sensor_type;location;lat;lon;timestamp;temperature;humidity
23283;DHT22;11810;51.178;3.878;2023-04-06T00:01:16;8.20;99.90
23283;DHT22;11810;51.178;3.878;2023-04-06T00:03:42;8.30;99.90
23283;DHT22;11810;51.178;3.878;2023-04-06T00:06:08;8.30;99.90
23283;DHT22;11810;51.178;3.878;2023-04-06T00:08:34;8.30;99.90
23283;DHT22;11810;51.178;3.878;2023-04-06T00:11:00;8.30;99.90
23283;DHT22;11810;51.178;3.878;2023-04-06T00:13:26;8.20;99.90
23283;DHT22;11810;51.178;3.878;2023-04-06T00:15:52;8.20;99.90
23283;DHT22;11810;51.178;3.878;2023-04-06T00:18:18;8.30;99.90
23283;DHT22;11810;51.178;3.878;2023-04-06T00:20:45;8.40;99.90
23283;DHT22;11810;51.178;3.878;2023-04-06T00:23:11;8.30;99.90
23283;DHT22;11810;51.178;3.878;2023-04-06T00:25:37;8.30;99.90
23283;DHT22;11810;51.178;3.878;2023-04-06T00:28:03;8.20;99.90
23283;DHT22;11810;51.178;3.878;2023-04-06T00:30:29;8.10;99.90
23283;DHT22;11810;51.178;3.878;2023-04-06T00:32:55;7.90;99.90
23283;DHT22;11810;51.178;3.878;2023-04-06T00:35:21;7.80;99.90
23283;DHT22;11810;51.178;3.878;2023-04-06T00:37:47;7.70;99.90
23283;DHT22;11810;51.178;3.878;2023-04-06T00:40:16;7.60;99.90
23283;DHT22;11810;51.178;3.878;2023-04-06T00:43:21;7.50;99.90
23283;DHT22;11810;51.178;3.878;2023-04-06T00:45:47;7.50;99.90
23283;DHT22;11810;51.178;3.878;2023-04-06T00:48:13;7.40;99.90
23283;DHT22;11810;51.178;3.878;2023-04-06T00:50:40;7.40;99.90
23283;DHT22;11810;51.178;3.878;2023-04-06T00:53:06;7.40;99.90
23283;DHT22;11810;51.178;3.878;2023-04-06T00:55:32;7.40;99.90
23283;DHT22;11810;51.178;3.878;2023-04-06T00:57:59;7.30;99.90
23283;DHT22;11810;51.178;3.878;2023-04-06T01:00:28;7.30;99.90
23283;DHT22;11810;51.178;3.878;2023-04-06T01:02:54;7.30;99.90
23283;DHT22;11810;51.178;3.878;2023-04-06T01:05:20;7.40;99.90
23283;DHT22;11810;51.178;3.878;2023-04-06T01:07:46;7.40;99.90
23283;DHT22;11810;51.178;3.878;2023-04-06T01:10:25;7.50;99.90
23283;DHT22;11810;51.178;3.878;2023-04-06T01:14:24;7.50;99.90
23283;DHT22;11810;51.178;3.878;2023-04-06T01:16:51;7.50;99.90
23283;DHT22;11810;51.178;3.878;2023-04-06T01:19:17;7.50;99.90
23283;DHT22;11810;51.178;3.878;2023-04-06T01:21:43;7.50;99.90
23283;DHT22;11810;51.178;3.878;2023-04-06T01:24:10;7.60;99.90
23283;DHT22;11810;51.178;3.878;2023-04-06T01:26:36;7.60;99.90
23283;DHT22;11810;51.178;3.878;2023-04-06T01:29:03;7.60;99.90
23283;DHT22;11810;51.178;3.878;2023-04-06T01:31:29;7.60;99.90
23283;DHT22;11810;51.178;3.878;2023-04-06T01:33:55;7.70;99.90
23283;DHT22;11810;51.178;3.878;2023-04-06T01:36:22;7.80;99.90
23283;DHT22;11810;51.178;3.878;2023-04-06T01:38:48;7.70;99.90
23283;DHT22;11810;51.178;3.878;2023-04-06T01:41:14;7.70;99.90
23283;DHT22;11810;51.178;3.878;2023-04-06T01:43:39;7.70;99.90
23283;DHT22;11810;51.178;3.878;2023-04-06T01:46:05;7.70;99.90
23283;DHT22;11810;51.178;3.878;2023-04-06T01:48:31;7.70;99.90
23283;DHT22;11810;51.178;3.878;2023-04-06T01:50:57;7.70;99.90
23283;DHT22;11810;51.178;3.878;2023-04-06T01:53:23;7.70;99.90
23283;DHT22;11810;51.178;3.878;2023-04-06T01:55:49;7.80;99.90
23283;DHT22;11810;51.178;3.878;2023-04-06T01:58:15;7.80;99.90
23283;DHT22;11810;51.178;3.878;2023-04-06T02:00:41;7.80;99.90
23283;DHT22;11810;51.178;3.878;2023-04-06T02:03:07;7.90;99.90
23283;DHT22;11810;51.178;3.878;2023-04-06T02:05:34;7.90;99.90
23283;DHT22;11810;51.178;3.878;2023-04-06T02:08:04;8.00;99.90
23283;DHT22;11810;51.178;3.878;2023-04-06T02:10:31;8.00;99.90
23283;DHT22;11810;51.178;3.878;2023-04-06T02:12:57;8.00;99.90
23283;DHT22;11810;51.178;3.878;2023-04-06T02:15:24;7.90;99.90
23283;DHT22;11810;51.178;3.878;2023-04-06T02:17:51;7.90;99.90
23283;DHT22;11810;51.178;3.878;2023-04-06T02:20:17;8.00;99.90
23283;DHT22;11810;51.178;3.878;2023-04-06T02:22:43;7.90;99.90
23283;DHT22;11810;51.178;3.878;2023-04-06T02:25:08;8.00;99.90
23283;DHT22;11810;51.178;3.878;2023-04-06T02:27:35;8.00;99.90
23283;DHT22;11810;51.178;3.878;2023-04-06T02:30:02;8.00;99.90
23283;DHT22;11810;51.178;3.878;2023-04-06T02:32:28;8.00;99.90
23283;DHT22;11810;51.178;3.878;2023-04-06T02:34:55;8.00;99.90
23283;DHT22;11810;51.178;3.878;2023-04-06T02:37:20;8.00;99.90
23283;DHT22;11810;51.178;3.878;2023-04-06T02:39:47;8.00;99.90
23283;DHT22;11810;51.178;3.878;2023-04-06T02:42:13;7.90;99.90
23283;DHT22;11810;51.178;3.878;2023-04-06T02:44:41;8.00;99.90
23283;DHT22;11810;51.178;3.878;2023-04-06T02:47:07;8.00;99.90
23283;DHT22;11810;51.178;3.878;2023-04-06T02:49:33;8.00;99.90
23283;DHT22;11810;51.178;3.878;2023-04-06T02:51:59;7.90;99.90
23283;DHT22;11810;51.178;3.878;2023-04-06T02:54:25;7.90;99.90
23283;DHT22;11810;51.178;3.878;2023-04-06T02:56:51;7.90;99.90
23283;DHT22;11810;51.178;3.878;2023-04-06T02:59:17;8.00;99.90
23283;DHT22;11810;51.178;3.878;2023-04-06T03:01:43;8.00;99.90
23283;DHT22;11810;51.178;3.878;2023-04-06T03:04:09;8.10;99.90
23283;DHT22;11810;51.178;3.878;2023-04-06T03:06:35;8.00;99.90
23283;DHT22;11810;51.178;3.878;2023-04-06T03:09:01;8.10;99.90
23283;DHT22;11810;51.178;3.878;2023-04-06T03:11:27;8.10;99.90
23283;DHT22;11810;51.178;3.878;2023-04-06T03:13:53;8.00;99.90
23283;DHT22;11810;51.178;3.878;2023-04-06T03:16:19;8.10;99.90
23283;DHT22;11810;51.178;3.878;2023-04-06T03:18:44;8.20;99.90
23283;DHT22;11810;51.178;3.878;2023-04-06T03:21:15;8.20;99.90
23283;DHT22;11810;51.178;3.878;2023-04-06T03:23:42;8.20;99.90
23283;DHT22;11810;51.178;3.878;2023-04-06T03:26:07;8.20;99.90
23283;DHT22;11810;51.178;3.878;2023-04-06T03:28:33;8.20;99.90
23283;DHT22;11810;51.178;3.878;2023-04-06T03:30:59;8.30;99.90
23283;DHT22;11810;51.178;3.878;2023-04-06T03:33:26;8.20;99.90
23283;DHT22;11810;51.178;3.878;2023-04-06T03:35:54;8.10;99.90
23283;DHT22;11810;51.178;3.878;2023-04-06T03:38:20;8.10;99.90
23283;DHT22;11810;51.178;3.878;2023-04-06T03:40:46;8.10;99.90
23283;DHT22;11810;51.178;3.878;2023-04-06T03:43:12;8.20;99.90
23283;DHT22;11810;51.178;3.878;2023-04-06T03:45:38;8.30;99.90
23283;DHT22;11810;51.178;3.878;2023-04-06T03:48:05;8.10;99.90
23283;DHT22;11810;51.178;3.878;2023-04-06T03:50:31;8.30;99.90
23283;DHT22;11810;51.178;3.878;2023-04-06T03:52:56;8.30;99.90
23283;DHT22;11810;51.178;3.878;2023-04-06T03:55:22;8.30;99.90
23283;DHT22;11810;51.178;3.878;2023-04-06T03:57:48;8.20;99.90
23283;DHT22;11810;51.178;3.878;2023-04-06T04:00:15;8.10;99.90
23283;DHT22;11810;51.178;3.878;2023-04-06T04:02:41;8.20;99.90
23283;DHT22;11810;51.178;3.878;2023-04-06T04:05:07;8.20;99.90
23283;DHT22;11810;51.178;3.878;2023-04-06T04:07:33;8.20;99.90
23283;DHT22;11810;51.178;3.878;2023-04-06T04:09:59;8.30;99.90
23283;DHT22;11810;51.178;3.878;2023-04-06T04:12:25;8.30;99.90
23283;DHT22;11810;51.178;3.878;2023-04-06T04:14:51;8.30;99.90
23283;DHT22;11810;51.178;3.878;2023-04-06T04:17:17;8.30;99.90
23283;DHT22;11810;51.178;3.878;2023-04-06T04:19:43;8.30;99.90
23283;DHT22;11810;51.178;3.878;2023-04-06T04:22:09;8.40;99.90
23283;DHT22;11810;51.178;3.878;2023-04-06T04:24:35;8.40;99.90
23283;DHT22;11810;51.178;3.878;2023-04-06T04:27:01;8.50;99.90
23283;DHT22;11810;51.178;3.878;2023-04-06T04:29:27;8.50;99.90
23283;DHT22;11810;51.178;3.878;2023-04-06T04:31:53;8.60;99.90
23283;DHT22;11810;51.178;3.878;2023-04-06T04:34:19;8.50;99.90
23283;DHT22;11810;51.178;3.878;2023-04-06T04:36:46;8.50;99.90
23283;DHT22;11810;51.178;3.878;2023-04-06T04:39:12;8.50;99.90
23283;DHT22;11810;51.178;3.878;2023-04-06T04:41:38;8.60;99.90
23283;DHT22;11810;51.178;3.878;2023-04-06T04:44:04;8.60;99.90
23283;DHT22;11810;51.178;3.878;2023-04-06T04:46:30;8.70;99.90
23283;DHT22;11810;51.178;3.878;2023-04-06T04:48:56;8.60;99.90
23283;DHT22;11810;51.178;3.878;2023-04-06T04:51:22;8.50;99.90
23283;DHT22;11810;51.178;3.878;2023-04-06T04:53:50;8.60;99.90
23283;DHT22;11810;51.178;3.878;2023-04-06T04:56:16;8.60;99.90
23283;DHT22;11810;51.178;3.878;2023-04-06T04:58:42;8.50;99.90
23283;DHT22;11810;51.178;3.878;2023-04-06T05:01:08;8.60;99.90
23283;DHT22;11810;51.178;3.878;2023-04-06T05:03:34;8.70;99.90
23283;DHT22;11810;51.178;3.878;2023-04-06T05:06:01;8.60;99.90
23283;DHT22;11810;51.178;3.878;2023-04-06T05:08:27;8.70;99.90
23283;DHT22;11810;51.178;3.878;2023-04-06T05:10:53;8.70;99.90
23283;DHT22;11810;51.178;3.878;2023-04-06T05:13:19;8.70;99.90
23283;DHT22;11810;51.178;3.878;2023-04-06T05:15:45;8.80;99.90
23283;DHT22;11810;51.178;3.878;2023-04-06T05:18:13;8.80;99.90
23283;DHT22;11810;51.178;3.878;2023-04-06T05:20:39;8.90;99.90
23283;DHT22;11810;51.178;3.878;2023-04-06T05:23:05;8.90;99.90
23283;DHT22;11810;51.178;3.878;2023-04-06T05:25:32;8.70;99.90
23283;DHT22;11810;51.178;3.878;2023-04-06T05:27:58;8.90;99.90
23283;DHT22;11810;51.178;3.878;2023-04-06T05:30:24;8.90;99.90
23283;DHT22;11810;51.178;3.878;2023-04-06T05:32:50;9.10;99.90
23283;DHT22;11810;51.178;3.878;2023-04-06T05:35:16;9.10;99.90
23283;DHT22;11810;51.178;3.878;2023-04-06T05:37:44;9.10;99.90
23283;DHT22;11810;51.178;3.878;2023-04-06T05:40:10;8.90;99.90
23283;DHT22;11810;51.178;3.878;2023-04-06T05:42:40;8.80;99.90
23283;DHT22;11810;51.178;3.878;2023-04-06T05:45:07;8.80;99.90
23283;DHT22;11810;51.178;3.878;2023-04-06T05:47:33;8.70;99.90
23283;DHT22;11810;51.178;3.878;2023-04-06T05:49:59;8.80;99.90
23283;DHT22;11810;51.178;3.878;2023-04-06T05:52:25;8.60;99.90
23283;DHT22;11810;51.178;3.878;2023-04-06T05:54:52;8.70;99.90
23283;DHT22;11810;51.178;3.878;2023-04-06T05:57:18;8.60;99.90
23283;DHT22;11810;51.178;3.878;2023-04-06T05:59:44;8.70;99.90
23283;DHT22;11810;51.178;3.878;2023-04-06T06:02:10;8.60;99.90
23283;DHT22;11810;51.178;3.878;2023-04-06T06:04:36;8.60;99.90
23283;DHT22;11810;51.178;3.878;2023-04-06T06:07:02;8.60;99.90
23283;DHT22;11810;51.178;3.878;2023-04-06T06:09:29;8.60;99.90
23283;DHT22;11810;51.178;3.878;2023-04-06T06:11:55;8.80;99.90
23283;DHT22;11810;51.178;3.878;2023-04-06T06:14:21;8.70;99.90
23283;DHT22;11810;51.178;3.878;2023-04-06T06:16:47;8.70;99.90
23283;DHT22;11810;51.178;3.878;2023-04-06T06:19:13;8.80;99.90
23283;DHT22;11810;51.178;3.878;2023-04-06T06:21:39;8.60;99.90
23283;DHT22;11810;51.178;3.878;2023-04-06T06:24:06;8.60;99.90
23283;DHT22;11810;51.178;3.878;2023-04-06T06:26:32;8.70;99.90
23283;DHT22;11810;51.178;3.878;2023-04-06T06:29:01;8.70;99.90
23283;DHT22;11810;51.178;3.878;2023-04-06T06:31:26;8.60;99.90
23283;DHT22;11810;51.178;3.878;2023-04-06T06:33:52;8.60;99.90
23283;DHT22;11810;51.178;3.878;2023-04-06T06:36:18;8.70;99.90
23283;DHT22;11810;51.178;3.878;2023-04-06T06:38:44;8.70;99.90
23283;DHT22;11810;51.178;3.878;2023-04-06T06:41:11;8.80;99.90
23283;DHT22;11810;51.178;3.878;2023-04-06T06:43:37;8.90;99.90
23283;DHT22;11810;51.178;3.878;2023-04-06T06:46:03;8.90;99.90
23283;DHT22;11810;51.178;3.878;2023-04-06T06:48:30;8.90;99.90
23283;DHT22;11810;51.178;3.878;2023-04-06T06:50:56;8.90;99.90
23283;DHT22;11810;51.178;3.878;2023-04-06T06:53:23;8.80;99.90
23283;DHT22;11810;51.178;3.878;2023-04-06T06:55:50;8.80;99.90
23283;DHT22;11810;51.178;3.878;2023-04-06T06:58:18;8.80;99.90
23283;DHT22;11810;51.178;3.878;2023-04-06T07:00:45;8.90;99.90
23283;DHT22;11810;51.178;3.878;2023-04-06T07:03:11;9.10;99.90
23283;DHT22;11810;51.178;3.878;2023-04-06T07:05:37;9.10;99.90
23283;DHT22;11810;51.178;3.878;2023-04-06T07:08:03;9.20;99.90
23283;DHT22;11810;51.178;3.878;2023-04-06T07:10:29;9.10;99.90
23283;DHT22;11810;51.178;3.878;2023-04-06T07:12:55;9.20;99.90
23283;DHT22;11810;51.178;3.878;2023-04-06T07:15:21;9.30;99.90
23283;DHT22;11810;51.178;3.878;2023-04-06T07:17:47;9.40;99.90
23283;DHT22;11810;51.178;3.878;2023-04-06T07:20:14;9.40;99.90
23283;DHT22;11810;51.178;3.878;2023-04-06T07:22:41;9.60;99.90
23283;DHT22;11810;51.178;3.878;2023-04-06T07:25:07;9.60;99.90
23283;DHT22;11810;51.178;3.878;2023-04-06T07:27:33;9.70;99.90
23283;DHT22;11810;51.178;3.878;2023-04-06T07:29:59;9.70;99.90
23283;DHT22;11810;51.178;3.878;2023-04-06T07:32:25;9.50;99.90
23283;DHT22;11810;51.178;3.878;2023-04-06T07:34:51;9.50;99.90
23283;DHT22;11810;51.178;3.878;2023-04-06T07:37:17;9.40;99.90
23283;DHT22;11810;51.178;3.878;2023-04-06T07:39:43;9.50;99.90
23283;DHT22;11810;51.178;3.878;2023-04-06T07:42:09;9.50;99.90
23283;DHT22;11810;51.178;3.878;2023-04-06T07:44:35;9.60;99.90
23283;DHT22;11810;51.178;3.878;2023-04-06T07:47:01;9.60;99.90
23283;DHT22;11810;51.178;3.878;2023-04-06T07:49:27;9.50;99.90
23283;DHT22;11810;51.178;3.878;2023-04-06T07:51:54;9.50;99.90
23283;DHT22;11810;51.178;3.878;2023-04-06T07:54:20;9.50;99.90
23283;DHT22;11810;51.178;3.878;2023-04-06T07:56:45;9.50;99.90
23283;DHT22;11810;51.178;3.878;2023-04-06T07:59:11;9.50;99.90
23283;DHT22;11810;51.178;3.878;2023-04-06T08:01:39;9.60;99.90
23283;DHT22;11810;51.178;3.878;2023-04-06T08:04:05;9.50;99.90
23283;DHT22;11810;51.178;3.878;2023-04-06T08:06:31;9.50;99.90
23283;DHT22;11810;51.178;3.878;2023-04-06T08:08:57;9.60;99.90
23283;DHT22;11810;51.178;3.878;2023-04-06T08:11:23;9.60;99.90
23283;DHT22;11810;51.178;3.878;2023-04-06T08:13:49;9.50;99.90
23283;DHT22;11810;51.178;3.878;2023-04-06T08:16:15;9.50;99.90
23283;DHT22;11810;51.178;3.878;2023-04-06T08:18:41;9.50;99.90
23283;DHT22;11810;51.178;3.878;2023-04-06T08:21:07;9.50;99.90
23283;DHT22;11810;51.178;3.878;2023-04-06T08:23:32;9.70;99.90
23283;DHT22;11810;51.178;3.878;2023-04-06T08:25:58;9.70;99.90
23283;DHT22;11810;51.178;3.878;2023-04-06T08:28:24;9.80;99.90
23283;DHT22;11810;51.178;3.878;2023-04-06T08:30:50;9.90;99.90
23283;DHT22;11810;51.178;3.878;2023-04-06T08:33:16;9.90;99.90
23283;DHT22;11810;51.178;3.878;2023-04-06T08:35:42;10.00;99.90
23283;DHT22;11810;51.178;3.878;2023-04-06T08:38:08;10.10;99.90
23283;DHT22;11810;51.178;3.878;2023-04-06T08:40:40;10.30;99.90
23283;DHT22;11810;51.178;3.878;2023-04-06T08:43:09;10.10;99.90
23283;DHT22;11810;51.178;3.878;2023-04-06T08:45:38;10.00;99.90
23283;DHT22;11810;51.178;3.878;2023-04-06T08:48:05;10.00;99.90
23283;DHT22;11810;51.178;3.878;2023-04-06T08:50:33;10.00;99.90
23283;DHT22;11810;51.178;3.878;2023-04-06T08:52:59;10.10;99.90
23283;DHT22;11810;51.178;3.878;2023-04-06T08:55:25;10.10;99.90
23283;DHT22;11810;51.178;3.878;2023-04-06T08:57:52;9.90;99.90
23283;DHT22;11810;51.178;3.878;2023-04-06T09:00:21;10.00;99.90
23283;DHT22;11810;51.178;3.878;2023-04-06T09:02:49;9.80;99.90
23283;DHT22;11810;51.178;3.878;2023-04-06T09:05:15;9.60;99.90
23283;DHT22;11810;51.178;3.878;2023-04-06T09:07:42;9.70;99.90
23283;DHT22;11810;51.178;3.878;2023-04-06T09:10:08;9.80;99.90
23283;DHT22;11810;51.178;3.878;2023-04-06T09:12:34;9.80;99.90
23283;DHT22;11810;51.178;3.878;2023-04-06T09:15:01;9.90;99.90
23283;DHT22;11810;51.178;3.878;2023-04-06T09:17:31;10.00;99.90
23283;DHT22;11810;51.178;3.878;2023-04-06T09:20:02;10.00;99.90
23283;DHT22;11810;51.178;3.878;2023-04-06T09:22:39;10.00;99.90
23283;DHT22;11810;51.178;3.878;2023-04-06T09:25:06;10.00;99.90
23283;DHT22;11810;51.178;3.878;2023-04-06T09:27:36;10.10;99.90
23283;DHT22;11810;51.178;3.878;2023-04-06T09:30:04;10.10;99.90
23283;DHT22;11810;51.178;3.878;2023-04-06T09:32:31;10.20;99.90
23283;DHT22;11810;51.178;3.878;2023-04-06T09:35:07;10.20;99.90
23283;DHT22;11810;51.178;3.878;2023-04-06T09:37:33;10.20;99.90
23283;DHT22;11810;51.178;3.878;2023-04-06T09:40:07;10.20;99.90
23283;DHT22;11810;51.178;3.878;2023-04-06T09:42:34;10.30;99.90
23283;DHT22;11810;51.178;3.878;2023-04-06T09:45:01;10.10;99.90
23283;DHT22;11810;51.178;3.878;2023-04-06T09:47:27;10.30;99.90
23283;DHT22;11810;51.178;3.878;2023-04-06T09:49:59;10.40;99.90
23283;DHT22;11810;51.178;3.878;2023-04-06T09:52:33;10.50;99.90
23283;DHT22;11810;51.178;3.878;2023-04-06T09:55:04;10.50;99.90
23283;DHT22;11810;51.178;3.878;2023-04-06T09:58:10;10.30;99.90
23283;DHT22;11810;51.178;3.878;2023-04-06T10:03:50;10.10;99.90
23283;DHT22;11810;51.178;3.878;2023-04-06T10:06:21;10.20;99.90
23283;DHT22;11810;51.178;3.878;2023-04-06T10:08:50;10.40;99.90
23283;DHT22;11810;51.178;3.878;2023-04-06T10:11:18;10.50;99.90
23283;DHT22;11810;51.178;3.878;2023-04-06T10:13:45;10.50;99.90
23283;DHT22;11810;51.178;3.878;2023-04-06T10:16:14;10.50;99.90
23283;DHT22;11810;51.178;3.878;2023-04-06T10:18:46;10.40;99.90
23283;DHT22;11810;51.178;3.878;2023-04-06T10:21:16;10.50;99.90
23283;DHT22;11810;51.178;3.878;2023-04-06T10:23:52;10.30;99.90
23283;DHT22;11810;51.178;3.878;2023-04-06T10:26:22;10.40;99.90
23283;DHT22;11810;51.178;3.878;2023-04-06T10:28:49;10.40;99.90
23283;DHT22;11810;51.178;3.878;2023-04-06T10:31:26;10.50;99.90
23283;DHT22;11810;51.178;3.878;2023-04-06T10:33:54;10.70;99.90
23283;DHT22;11810;51.178;3.878;2023-04-06T10:36:26;10.70;99.90
23283;DHT22;11810;51.178;3.878;2023-04-06T10:39:10;10.80;99.90
23283;DHT22;11810;51.178;3.878;2023-04-06T10:41:41;10.80;99.90
23283;DHT22;11810;51.178;3.878;2023-04-06T10:44:08;11.00;99.90
23283;DHT22;11810;51.178;3.878;2023-04-06T10:46:42;11.00;99.90
23283;DHT22;11810;51.178;3.878;2023-04-06T10:49:17;10.90;99.90
23283;DHT22;11810;51.178;3.878;2023-04-06T10:51:43;10.90;99.90
23283;DHT22;11810;51.178;3.878;2023-04-06T10:54:11;10.70;99.90
23283;DHT22;11810;51.178;3.878;2023-04-06T10:56:38;10.60;99.90
23283;DHT22;11810;51.178;3.878;2023-04-06T10:59:06;10.50;99.90
23283;DHT22;11810;51.178;3.878;2023-04-06T11:01:32;10.50;99.90
23283;DHT22;11810;51.178;3.878;2023-04-06T11:03:58;10.50;99.90
23283;DHT22;11810;51.178;3.878;2023-04-06T11:06:26;10.50;99.90
23283;DHT22;11810;51.178;3.878;2023-04-06T11:08:54;10.70;99.90
23283;DHT22;11810;51.178;3.878;2023-04-06T11:11:23;10.60;99.90
23283;DHT22;11810;51.178;3.878;2023-04-06T11:13:58;10.60;99.90
23283;DHT22;11810;51.178;3.878;2023-04-06T11:16:27;10.70;99.90
23283;DHT22;11810;51.178;3.878;2023-04-06T11:18:55;10.70;99.90
23283;DHT22;11810;51.178;3.878;2023-04-06T11:21:39;10.60;99.90
23283;DHT22;11810;51.178;3.878;2023-04-06T11:24:15;10.70;99.90
23283;DHT22;11810;51.178;3.878;2023-04-06T11:27:01;10.80;99.90
23283;DHT22;11810;51.178;3.878;2023-04-06T11:29:29;10.80;99.90
23283;DHT22;11810;51.178;3.878;2023-04-06T11:32:01;10.70;99.90
23283;DHT22;11810;51.178;3.878;2023-04-06T11:34:29;10.80;99.90
23283;DHT22;11810;51.178;3.878;2023-04-06T11:36:57;10.90;99.90
23283;DHT22;11810;51.178;3.878;2023-04-06T11:39:25;10.90;99.90
23283;DHT22;11810;51.178;3.878;2023-04-06T11:41:58;10.90;99.90
23283;DHT22;11810;51.178;3.878;2023-04-06T11:44:43;11.00;99.90
23283;DHT22;11810;51.178;3.878;2023-04-06T11:47:12;10.90;99.90
23283;DHT22;11810;51.178;3.878;2023-04-06T11:49:39;10.90;99.90
23283;DHT22;11810;51.178;3.878;2023-04-06T11:52:20;11.00;99.90
23283;DHT22;11810;51.178;3.878;2023-04-06T11:54:47;11.00;99.90
23283;DHT22;11810;51.178;3.878;2023-04-06T11:57:13;11.10;99.90
23283;DHT22;11810;51.178;3.878;2023-04-06T11:59:40;11.10;99.90
23283;DHT22;11810;51.178;3.878;2023-04-06T12:02:06;11.10;99.90
23283;DHT22;11810;51.178;3.878;2023-04-06T12:04:32;11.00;99.90
23283;DHT22;11810;51.178;3.878;2023-04-06T12:06:58;11.00;99.90
23283;DHT22;11810;51.178;3.878;2023-04-06T12:09:24;11.10;99.90
23283;DHT22;11810;51.178;3.878;2023-04-06T12:11:50;11.00;99.90
23283;DHT22;11810;51.178;3.878;2023-04-06T12:14:16;11.10;99.90
23283;DHT22;11810;51.178;3.878;2023-04-06T12:16:42;11.00;99.90
23283;DHT22;11810;51.178;3.878;2023-04-06T12:19:09;10.80;99.90
23283;DHT22;11810;51.178;3.878;2023-04-06T12:21:35;10.70;99.90
23283;DHT22;11810;51.178;3.878;2023-04-06T12:24:04;10.90;99.90
23283;DHT22;11810;51.178;3.878;2023-04-06T12:26:31;11.00;99.90
23283;DHT22;11810;51.178;3.878;2023-04-06T12:28:58;10.90;99.90
23283;DHT22;11810;51.178;3.878;2023-04-06T12:31:34;10.80;99.90
23283;DHT22;11810;51.178;3.878;2023-04-06T12:34:00;10.80;99.90
23283;DHT22;11810;51.178;3.878;2023-04-06T12:36:28;10.80;99.90
23283;DHT22;11810;51.178;3.878;2023-04-06T12:38:55;10.90;99.90
23283;DHT22;11810;51.178;3.878;2023-04-06T12:41:21;10.70;99.90
23283;DHT22;11810;51.178;3.878;2023-04-06T12:43:48;10.70;99.90
23283;DHT22;11810;51.178;3.878;2023-04-06T12:46:17;10.80;99.90
23283;DHT22;11810;51.178;3.878;2023-04-06T12:48:43;10.80;99.90
23283;DHT22;11810;51.178;3.878;2023-04-06T12:51:10;10.80;99.90
23283;DHT22;11810;51.178;3.878;2023-04-06T12:53:36;10.80;99.90
23283;DHT22;11810;51.178;3.878;2023-04-06T12:56:09;10.70;99.90
23283;DHT22;11810;51.178;3.878;2023-04-06T12:58:36;10.70;99.90
23283;DHT22;11810;51.178;3.878;2023-04-06T13:01:06;10.90;99.90
23283;DHT22;11810;51.178;3.878;2023-04-06T13:03:32;11.00;99.90
23283;DHT22;11810;51.178;3.878;2023-04-06T13:06:00;10.90;99.90
23283;DHT22;11810;51.178;3.878;2023-04-06T13:08:26;11.10;99.90
23283;DHT22;11810;51.178;3.878;2023-04-06T13:10:53;11.20;99.90
23283;DHT22;11810;51.178;3.878;2023-04-06T13:13:29;11.30;99.90
23283;DHT22;11810;51.178;3.878;2023-04-06T13:15:59;11.10;99.90
23283;DHT22;11810;51.178;3.878;2023-04-06T13:18:26;11.00;99.90
23283;DHT22;11810;51.178;3.878;2023-04-06T13:20:52;11.00;99.90
23283;DHT22;11810;51.178;3.878;2023-04-06T13:23:21;11.10;99.90
23283;DHT22;11810;51.178;3.878;2023-04-06T13:25:46;11.00;99.90
23283;DHT22;11810;51.178;3.878;2023-04-06T13:28:12;10.90;99.90
23283;DHT22;11810;51.178;3.878;2023-04-06T13:30:39;10.90;99.90
23283;DHT22;11810;51.178;3.878;2023-04-06T13:33:05;11.00;99.90
23283;DHT22;11810;51.178;3.878;2023-04-06T13:35:32;11.20;99.90
23283;DHT22;11810;51.178;3.878;2023-04-06T13:37:58;11.30;99.90
23283;DHT22;11810;51.178;3.878;2023-04-06T13:40:24;11.20;99.90
23283;DHT22;11810;51.178;3.878;2023-04-06T13:42:50;11.40;99.90
23283;DHT22;11810;51.178;3.878;2023-04-06T13:45:17;11.30;99.90
23283;DHT22;11810;51.178;3.878;2023-04-06T13:47:43;11.10;99.90
23283;DHT22;11810;51.178;3.878;2023-04-06T13:50:09;11.20;99.90
23283;DHT22;11810;51.178;3.878;2023-04-06T13:52:35;11.30;99.90
23283;DHT22;11810;51.178;3.878;2023-04-06T13:55:01;11.40;99.90
23283;DHT22;11810;51.178;3.878;2023-04-06T13:57:28;11.30;99.90
23283;DHT22;11810;51.178;3.878;2023-04-06T13:59:55;11.40;99.90
23283;DHT22;11810;51.178;3.878;2023-04-06T14:02:21;11.30;99.90
23283;DHT22;11810;51.178;3.878;2023-04-06T14:04:53;11.30;99.90
23283;DHT22;11810;51.178;3.878;2023-04-06T14:07:20;11.30;99.90
23283;DHT22;11810;51.178;3.878;2023-04-06T14:09:47;11.40;99.90
23283;DHT22;11810;51.178;3.878;2023-04-06T14:12:13;11.40;99.90
23283;DHT22;11810;51.178;3.878;2023-04-06T14:14:39;11.50;99.90
23283;DHT22;11810;51.178;3.878;2023-04-06T14:17:05;11.60;99.90
23283;DHT22;11810;51.178;3.878;2023-04-06T14:19:31;11.50;99.90
23283;DHT22;11810;51.178;3.878;2023-04-06T14:21:57;11.50;99.90
23283;DHT22;11810;51.178;3.878;2023-04-06T14:24:23;11.50;99.90
23283;DHT22;11810;51.178;3.878;2023-04-06T14:26:49;11.70;99.90
23283;DHT22;11810;51.178;3.878;2023-04-06T14:29:15;11.80;99.90
23283;DHT22;11810;51.178;3.878;2023-04-06T14:31:41;11.80;99.90
23283;DHT22;11810;51.178;3.878;2023-04-06T14:34:07;11.90;99.90
23283;DHT22;11810;51.178;3.878;2023-04-06T14:36:33;11.90;99.90
23283;DHT22;11810;51.178;3.878;2023-04-06T14:39:07;11.80;99.90
23283;DHT22;11810;51.178;3.878;2023-04-06T14:41:34;11.90;99.90
23283;DHT22;11810;51.178;3.878;2023-04-06T14:44:00;11.90;99.90
23283;DHT22;11810;51.178;3.878;2023-04-06T14:46:27;12.10;99.90
23283;DHT22;11810;51.178;3.878;2023-04-06T14:48:56;12.00;99.90
23283;DHT22;11810;51.178;3.878;2023-04-06T14:51:25;12.00;99.90
23283;DHT22;11810;51.178;3.878;2023-04-06T14:53:53;12.00;99.90
23283;DHT22;11810;51.178;3.878;2023-04-06T14:56:20;12.10;99.90
23283;DHT22;11810;51.178;3.878;2023-04-06T14:58:46;12.20;99.90
23283;DHT22;11810;51.178;3.878;2023-04-06T15:01:12;12.20;99.90
23283;DHT22;11810;51.178;3.878;2023-04-06T15:03:38;12.10;99.90
23283;DHT22;11810;51.178;3.878;2023-04-06T15:06:05;12.10;99.90
23283;DHT22;11810;51.178;3.878;2023-04-06T15:08:32;12.10;99.90
23283;DHT22;11810;51.178;3.878;2023-04-06T15:10:59;12.20;99.90
23283;DHT22;11810;51.178;3.878;2023-04-06T15:13:25;12.00;99.90
23283;DHT22;11810;51.178;3.878;2023-04-06T15:15:51;11.90;99.90
23283;DHT22;11810;51.178;3.878;2023-04-06T15:18:18;11.70;99.90
23283;DHT22;11810;51.178;3.878;2023-04-06T15:20:44;11.60;99.90
23283;DHT22;11810;51.178;3.878;2023-04-06T15:23:10;11.60;99.90
23283;DHT22;11810;51.178;3.878;2023-04-06T15:25:36;11.50;99.90
23283;DHT22;11810;51.178;3.878;2023-04-06T15:28:06;11.40;99.90
23283;DHT22;11810;51.178;3.878;2023-04-06T15:30:32;11.30;99.90
23283;DHT22;11810;51.178;3.878;2023-04-06T15:32:59;11.30;99.90
23283;DHT22;11810;51.178;3.878;2023-04-06T15:35:29;11.30;99.90
23283;DHT22;11810;51.178;3.878;2023-04-06T15:37:56;11.20;99.90
23283;DHT22;11810;51.178;3.878;2023-04-06T15:40:23;11.10;99.90
23283;DHT22;11810;51.178;3.878;2023-04-06T15:42:49;11.10;99.90
23283;DHT22;11810;51.178;3.878;2023-04-06T15:45:15;11.10;99.90